createdAt,value
2023-03-16T00:00:00.000Z,83.59
2023-03-16T00:15:00.000Z,83.46
2023-03-16T00:30:00.000Z,83.64
2023-03-16T00:45:00.000Z,84.11
2023-03-16T01:00:00.000Z,84.57
2023-03-16T01:15:00.000Z,85.13
2023-03-16T01:30:00.000Z,85.46
2023-03-16T01:45:00.000Z,85.44
2023-03-16T02:00:00.000Z,85.48
2023-03-16T02:15:00.000Z,85.65
2023-03-16T02:30:00.000Z,85.79
2023-03-16T02:45:00.000Z,85.87
2023-03-16T03:00:00.000Z,85.99
2023-03-16T03:15:00.000Z,86.27
2023-03-16T03:30:00.000Z,86.51
2023-03-16T03:45:00.000Z,86.26
2023-03-16T04:00:00.000Z,85.87
2023-03-16T04:15:00.000Z,85.68
2023-03-16T04:30:00.000Z,85.8
2023-03-16T04:45:00.000Z,85.93
2023-03-16T04:45:00.000Z,85.93
2023-03-16T05:15:00.000Z,86.02
2023-03-16T05:15:00.000Z,86.02
2023-03-16T05:45:00.000Z,85.32
2023-03-16T05:45:00.000Z,85.32
2023-03-16T05:45:00.000Z,85.32
2023-03-16T06:30:00.000Z,81.04
2023-03-16T06:30:00.000Z,81.04
2023-03-16T07:00:00.000Z,68.58
2023-03-16T07:15:00.000Z,62.69
2023-03-16T07:30:00.000Z,57.99
2023-03-16T07:45:00.000Z,55.17
2023-03-16T08:00:00.000Z,51.99
2023-03-16T08:15:00.000Z,49.17
2023-03-16T08:30:00.000Z,47.39
2023-03-16T08:45:00.000Z,47.2
2023-03-16T09:00:00.000Z,48.36
2023-03-16T09:15:00.000Z,46.73
2023-03-16T09:30:00.000Z,46.43
2023-03-16T09:45:00.000Z,46.25
2023-03-16T10:00:00.000Z,43.85
2023-03-16T10:15:00.000Z,44.56
2023-03-16T10:30:00.000Z,43.05
2023-03-16T10:45:00.000Z,42.88
2023-03-16T11:00:00.000Z,43.26
2023-03-16T11:15:00.000Z,43.95
2023-03-16T11:30:00.000Z,44.1
2023-03-16T11:45:00.000Z,44.61
2023-03-16T12:00:00.000Z,45.13
2023-03-16T12:15:00.000Z,43.78
2023-03-16T12:30:00.000Z,44.87
2023-03-16T12:45:00.000Z,47.59
2023-03-16T13:00:00.000Z,47.19
2023-03-16T13:15:00.000Z,47.02
2023-03-16T13:30:00.000Z,46.23
2023-03-16T13:45:00.000Z,46.85
2023-03-16T14:00:00.000Z,47
2023-03-16T14:15:00.000Z,47.69
2023-03-16T14:30:00.000Z,47.77
2023-03-16T14:45:00.000Z,47.34
2023-03-16T15:00:00.000Z,47.71
2023-03-16T15:15:00.000Z,48.03
2023-03-16T15:30:00.000Z,48.32
2023-03-16T15:45:00.000Z,48.78
2023-03-16T16:00:00.000Z,49.04
2023-03-16T16:15:00.000Z,50.58
2023-03-16T16:30:00.000Z,51.92
2023-03-16T16:45:00.000Z,52.93
2023-03-16T17:00:00.000Z,54.29
2023-03-16T17:15:00.000Z,55.34
2023-03-16T17:30:00.000Z,56.63
2023-03-16T17:45:00.000Z,57.85
2023-03-16T18:00:00.000Z,58.12
2023-03-16T18:15:00.000Z,59.65
2023-03-16T18:30:00.000Z,59.49
2023-03-16T18:45:00.000Z,60.38
2023-03-16T19:00:00.000Z,61.28
2023-03-16T19:15:00.000Z,62.74
2023-03-16T19:30:00.000Z,64.61
2023-03-16T19:45:00.000Z,65.61
2023-03-16T20:00:00.000Z,66.75
2023-03-16T20:15:00.000Z,67.79
2023-03-16T20:30:00.000Z,68.58
2023-03-16T20:45:00.000Z,68.8
2023-03-16T21:00:00.000Z,70.06
2023-03-16T21:15:00.000Z,70.31
2023-03-16T21:30:00.000Z,68.75
2023-03-16T21:45:00.000Z,68.46
2023-03-16T22:00:00.000Z,68.76
2023-03-16T22:15:00.000Z,69.27
2023-03-16T22:30:00.000Z,65.66
2023-03-16T22:45:00.000Z,66.84
2023-03-16T23:00:00.000Z,65.34
2023-03-16T23:15:00.000Z,62.68
2023-03-16T23:30:00.000Z,63.2
2023-03-16T23:45:00.000Z,64.39
